Detalii statie UNIC PROD [00001D09]

Toti senzorii

Date Temperatura solului [C]Precipitatii [mm]Voltaj baterie [mV]Leaf Wetness [Min]HC Air temperature [C]HC Relative humidity [%]Punctul de roua [C]
medieminmaxsumaultimatimpmedieminmaxmediemediemin
2019-04-19 19:00:00 0 7226 11.99 10.91 13.37 72.75 7 6.2
2019-04-19 20:00:00 0 6914 9.79 8.77 10.64 86.69 7.5 7.2
2019-04-19 21:00:00 0 6894 8.32 8.01 8.6 95.39 7.5 7.3
2019-04-19 22:00:00 0 6894 7.71 7.39 7.94 99.89 7.6 7.3
2019-04-19 23:00:00 0 6874 6.45 5.03 7.43 100 6.4 5
2019-04-20 00:00:00 0 6864 5.72 4.91 6.06 100 5.6 4.9
2019-04-20 01:00:00 0 6854 5.11 4.28 6.1 100 5 4.2
2019-04-20 02:00:00 0 6844 3.22 2.46 4.2 100 3.1 2.4
2019-04-20 03:00:00 0 6834 2.89 2.51 3.4 100 2.8 2.5
2019-04-20 04:00:00 0 6834 2.63 2.05 3.45 100 2.5 2
2019-04-20 05:00:00 0 6834 4 3.56 4.34 100 3.9 3.5
2019-04-20 06:00:00 0 6834 4.61 4.32 5.01 100 4.5 4.3
2019-04-20 07:00:00 0.2 6834 5.01 4.57 5.66 100 4.9 4.5
2019-04-20 08:00:00 0 6952 6.27 5.64 7.15 100 6.2 5.6
2019-04-20 09:00:00 0 7216 8.1 7.19 9.12 97.29 7.6 7.1
2019-04-20 10:00:00 0 7246 10.25 9.16 11.41 80.81 6.9 6.1
2019-04-20 11:00:00 0 7246 11.85 11.31 12.54 62.52 4.7 2.6
2019-04-20 12:00:00 0 7246 13.37 12.47 14.09 43.8 0.9 -3
2019-04-20 13:00:00 0 7246 14.02 12.96 15.18 36.12 -0.8 -2.8
2019-04-20 14:00:00 0 7246 14.37 13.5 15.19 33.79 -1.4 -2.3
2019-04-20 15:00:00 0 7236 14.82 13.38 15.49 30.53 -2.5 -4.7
2019-04-20 16:00:00 0 7246 14.62 13.54 15.5 33.98 -1.2 -2.5
2019-04-20 17:00:00 0 7216 14.15 13.52 15.56 32.79 -2.1 -3.5
2019-04-20 18:00:00 0 7040 13.78 13.23 14.35 36.53 -0.9 -2.2
2019-04-20 19:00:00 0 7030 13.39 12.6 13.79 38.3 -0.7 -2.2
2019-04-20 20:00:00 0 6904 11.14 9.17 12.94 48.12 0.3 -1
2019-04-20 21:00:00 0 6904 8.76 8.3 9.02 60.34 1.3 0.9
2019-04-20 22:00:00 0 6894 7.54 6.35 8.13 74.88 3.2 2.1
2019-04-20 23:00:00 0 6874 5.02 3.64 6.94 84.02 2.4 1.5
2019-04-21 00:00:00 0 6854 3.74 2.95 5.04 90.57 2.2 1
2019-04-21 01:00:00 0 6834 3.35 2.04 4.16 97.6 2.9 1.7
2019-04-21 02:00:00 0 6834 3.49 1.95 5.61 98.83 3.2 1.9
2019-04-21 03:00:00 0 6834 3.43 2.81 4.65 97.55 3 2.4
2019-04-21 04:00:00 0 6826 3.13 2.78 3.53 100 3 2.7
2019-04-21 05:00:00 0 6826 2.96 2.35 4.08 100 2.9 2.3
2019-04-21 06:00:00 0 6816 3.11 2.81 3.43 100 3 2.8
2019-04-21 07:00:00 0 6826 3.79 3.11 4.38 100 3.7 3.1
2019-04-21 08:00:00 0 6834 5.07 4.35 5.58 100 5 4.3
2019-04-21 09:00:00 0 7070 7.04 5.71 9.44 96.48 6.3 5.7
2019-04-21 10:00:00 0 7216 9.98 9.03 11.1 71.8 4.9 4.5
2019-04-21 11:00:00 0 7236 12.03 10.91 12.78 62.96 5 4.4
2019-04-21 12:00:00 0 7236 13.96 12.81 14.74 55.8 5.1 4.5
2019-04-21 13:00:00 0 7236 15.84 14.78 17.22 49.79 5.1 3.6
2019-04-21 14:00:00 0 7236 16.9 16.05 18.05 45.7 4.8 3.2
2019-04-21 15:00:00 0 7236 16.87 16.08 17.92 44.16 4.4 3.1
2019-04-21 16:00:00 0 7236 18.09 17.64 18.66 40.94 4.3 2.4
2019-04-21 17:00:00 0 7226 18.13 16.9 18.94 41.62 4.6 2.9
2019-04-21 18:00:00 0 7088 16.93 15.91 18.23 44.52 4.5 3.3